Valle Barahona, Puerto Rico
Current Conditions -  °F | °C
As of 3:56 AM on Saturday 25 Oct 2014 (Local Time) from TJSJ Reporting Station
Few Clouds Few Clouds  
Wind Chill: 80°   Ceiling: Unl
Heat Index: 85°   Visibility: 10mi
Dew Point: 75°   Wind: 3mph
Humidity: 85%   Direction: 130°SE
Pressure: 29.87"   Gusts: NA
Location:  18.3346°N, 66.4186°W
Report Text: TJSJ 250756Z 13003KT 10SM FEW032 27/24 A2987 RMK AO2 SLP115 T02670239
Loading
Personal Weather Stations






























Interactive Weather Map
Tropical Storm Tracking
New forecast layout! Learn more

10-Day Weather Forecast

Advertisements
Track Severe Weather on mobile